sensor_id;sensor_type;location;lat;lon;timestamp;temperature;humidity
55721;DHT22;41626;53.098;6.168;2023-02-25T00:00:49;4.40;99.90
55721;DHT22;41626;53.098;6.168;2023-02-25T00:03:14;4.60;99.90
55721;DHT22;41626;53.098;6.168;2023-02-25T00:05:43;4.60;99.90
55721;DHT22;41626;53.098;6.168;2023-02-25T00:08:09;4.60;99.90
55721;DHT22;41626;53.098;6.168;2023-02-25T00:10:35;4.40;99.90
55721;DHT22;41626;53.098;6.168;2023-02-25T00:13:03;4.60;99.90
55721;DHT22;41626;53.098;6.168;2023-02-25T00:15:29;4.50;99.90
55721;DHT22;41626;53.098;6.168;2023-02-25T00:17:55;4.50;99.90
55721;DHT22;41626;53.098;6.168;2023-02-25T00:20:21;4.70;99.90
55721;DHT22;41626;53.098;6.168;2023-02-25T00:22:48;4.50;99.90
55721;DHT22;41626;53.098;6.168;2023-02-25T00:25:14;4.50;99.90
55721;DHT22;41626;53.098;6.168;2023-02-25T00:27:43;4.60;99.90
55721;DHT22;41626;53.098;6.168;2023-02-25T00:30:10;4.60;99.90
55721;DHT22;41626;53.098;6.168;2023-02-25T00:32:37;4.50;99.90
55721;DHT22;41626;53.098;6.168;2023-02-25T00:35:03;4.60;99.90
55721;DHT22;41626;53.098;6.168;2023-02-25T00:37:28;4.70;99.90
55721;DHT22;41626;53.098;6.168;2023-02-25T00:39:54;4.60;99.90
55721;DHT22;41626;53.098;6.168;2023-02-25T00:42:20;4.70;99.90
55721;DHT22;41626;53.098;6.168;2023-02-25T00:44:47;4.60;99.90
55721;DHT22;41626;53.098;6.168;2023-02-25T00:47:15;4.50;99.90
55721;DHT22;41626;53.098;6.168;2023-02-25T00:49:41;4.60;99.90
55721;DHT22;41626;53.098;6.168;2023-02-25T00:52:07;4.60;99.90
55721;DHT22;41626;53.098;6.168;2023-02-25T00:54:33;4.70;99.90
55721;DHT22;41626;53.098;6.168;2023-02-25T00:56:59;4.70;99.90
55721;DHT22;41626;53.098;6.168;2023-02-25T00:59:25;4.60;99.90
55721;DHT22;41626;53.098;6.168;2023-02-25T01:01:51;4.60;99.90
55721;DHT22;41626;53.098;6.168;2023-02-25T01:04:17;4.70;99.90
55721;DHT22;41626;53.098;6.168;2023-02-25T01:06:43;4.70;99.90
55721;DHT22;41626;53.098;6.168;2023-02-25T01:09:09;4.80;99.90
55721;DHT22;41626;53.098;6.168;2023-02-25T01:11:43;4.80;99.90
55721;DHT22;41626;53.098;6.168;2023-02-25T01:14:15;4.70;99.90
55721;DHT22;41626;53.098;6.168;2023-02-25T01:16:42;4.80;99.90
55721;DHT22;41626;53.098;6.168;2023-02-25T01:19:12;4.80;99.90
55721;DHT22;41626;53.098;6.168;2023-02-25T01:21:43;4.90;99.90
55721;DHT22;41626;53.098;6.168;2023-02-25T01:24:15;4.80;99.90
55721;DHT22;41626;53.098;6.168;2023-02-25T01:26:44;4.90;99.90
55721;DHT22;41626;53.098;6.168;2023-02-25T01:29:18;4.80;99.90
55721;DHT22;41626;53.098;6.168;2023-02-25T01:31:44;5.00;99.90
55721;DHT22;41626;53.098;6.168;2023-02-25T01:34:16;4.80;99.90
55721;DHT22;41626;53.098;6.168;2023-02-25T01:36:43;4.90;99.90
55721;DHT22;41626;53.098;6.168;2023-02-25T01:39:09;4.90;99.90
55721;DHT22;41626;53.098;6.168;2023-02-25T01:41:36;4.90;99.90
55721;DHT22;41626;53.098;6.168;2023-02-25T01:44:09;4.90;99.90
55721;DHT22;41626;53.098;6.168;2023-02-25T01:46:36;5.00;99.90
55721;DHT22;41626;53.098;6.168;2023-02-25T01:49:06;5.00;99.90
55721;DHT22;41626;53.098;6.168;2023-02-25T01:51:35;5.00;99.90
55721;DHT22;41626;53.098;6.168;2023-02-25T01:54:02;5.10;99.90
55721;DHT22;41626;53.098;6.168;2023-02-25T01:56:30;5.00;99.90
55721;DHT22;41626;53.098;6.168;2023-02-25T01:58:58;5.00;99.90
55721;DHT22;41626;53.098;6.168;2023-02-25T02:01:25;5.10;99.90
55721;DHT22;41626;53.098;6.168;2023-02-25T02:03:54;5.10;99.90
55721;DHT22;41626;53.098;6.168;2023-02-25T02:06:27;5.10;99.90
55721;DHT22;41626;53.098;6.168;2023-02-25T02:08:56;5.20;99.90
55721;DHT22;41626;53.098;6.168;2023-02-25T02:11:22;5.10;99.90
55721;DHT22;41626;53.098;6.168;2023-02-25T02:13:55;5.10;99.90
55721;DHT22;41626;53.098;6.168;2023-02-25T02:19:00;5.10;99.90
55721;DHT22;41626;53.098;6.168;2023-02-25T02:21:52;5.20;99.90
55721;DHT22;41626;53.098;6.168;2023-02-25T02:25:28;5.00;99.90
55721;DHT22;41626;53.098;6.168;2023-02-25T02:27:29;5.10;99.90
55721;DHT22;41626;53.098;6.168;2023-02-25T02:33:28;5.00;99.90
55721;DHT22;41626;53.098;6.168;2023-02-25T02:44:19;4.90;99.90
55721;DHT22;41626;53.098;6.168;2023-02-25T02:47:05;4.90;99.90
55721;DHT22;41626;53.098;6.168;2023-02-25T02:52:40;4.80;99.90
55721;DHT22;41626;53.098;6.168;2023-02-25T02:55:26;4.70;99.90
55721;DHT22;41626;53.098;6.168;2023-02-25T02:58:06;4.60;99.90
55721;DHT22;41626;53.098;6.168;2023-02-25T03:00:40;4.60;99.90
55721;DHT22;41626;53.098;6.168;2023-02-25T03:03:14;4.60;99.90
55721;DHT22;41626;53.098;6.168;2023-02-25T03:05:43;4.50;99.90
55721;DHT22;41626;53.098;6.168;2023-02-25T03:08:21;4.50;99.90
55721;DHT22;41626;53.098;6.168;2023-02-25T03:10:48;4.50;99.90
55721;DHT22;41626;53.098;6.168;2023-02-25T03:13:14;4.50;99.90
55721;DHT22;41626;53.098;6.168;2023-02-25T03:15:41;4.50;99.90
55721;DHT22;41626;53.098;6.168;2023-02-25T03:18:46;4.50;99.90
55721;DHT22;41626;53.098;6.168;2023-02-25T03:21:18;4.60;99.90
55721;DHT22;41626;53.098;6.168;2023-02-25T03:23:46;4.60;99.90
55721;DHT22;41626;53.098;6.168;2023-02-25T03:26:30;4.80;99.90
55721;DHT22;41626;53.098;6.168;2023-02-25T03:28:56;4.40;99.90
55721;DHT22;41626;53.098;6.168;2023-02-25T03:31:34;4.50;99.90
55721;DHT22;41626;53.098;6.168;2023-02-25T03:34:10;4.60;99.90
55721;DHT22;41626;53.098;6.168;2023-02-25T03:36:56;4.50;99.90
55721;DHT22;41626;53.098;6.168;2023-02-25T03:39:27;4.50;99.90
55721;DHT22;41626;53.098;6.168;2023-02-25T03:41:55;4.50;99.90
55721;DHT22;41626;53.098;6.168;2023-02-25T03:44:27;4.50;99.90
55721;DHT22;41626;53.098;6.168;2023-02-25T03:46:56;4.60;99.90
55721;DHT22;41626;53.098;6.168;2023-02-25T03:49:33;4.60;99.90
55721;DHT22;41626;53.098;6.168;2023-02-25T03:52:02;4.60;99.90
55721;DHT22;41626;53.098;6.168;2023-02-25T03:54:29;4.60;99.90
55721;DHT22;41626;53.098;6.168;2023-02-25T03:56:54;4.40;99.90
55721;DHT22;41626;53.098;6.168;2023-02-25T03:59:21;4.40;99.90
55721;DHT22;41626;53.098;6.168;2023-02-25T04:01:53;4.30;99.90
55721;DHT22;41626;53.098;6.168;2023-02-25T04:04:20;4.30;99.90
55721;DHT22;41626;53.098;6.168;2023-02-25T04:06:46;4.20;99.90
55721;DHT22;41626;53.098;6.168;2023-02-25T04:09:12;4.30;99.90
55721;DHT22;41626;53.098;6.168;2023-02-25T04:11:38;4.30;99.90
55721;DHT22;41626;53.098;6.168;2023-02-25T04:14:03;4.20;99.90
55721;DHT22;41626;53.098;6.168;2023-02-25T04:16:29;4.20;99.90
55721;DHT22;41626;53.098;6.168;2023-02-25T04:18:55;4.20;99.90
55721;DHT22;41626;53.098;6.168;2023-02-25T04:21:41;4.20;99.90
55721;DHT22;41626;53.098;6.168;2023-02-25T04:24:07;4.20;99.90
55721;DHT22;41626;53.098;6.168;2023-02-25T04:26:35;4.30;99.90
55721;DHT22;41626;53.098;6.168;2023-02-25T04:29:01;4.20;99.90
55721;DHT22;41626;53.098;6.168;2023-02-25T04:31:28;4.30;99.90
55721;DHT22;41626;53.098;6.168;2023-02-25T04:33:53;4.30;99.90
55721;DHT22;41626;53.098;6.168;2023-02-25T04:36:33;4.30;99.90
55721;DHT22;41626;53.098;6.168;2023-02-25T04:39:01;4.30;99.90
55721;DHT22;41626;53.098;6.168;2023-02-25T04:41:32;4.30;99.90
55721;DHT22;41626;53.098;6.168;2023-02-25T04:43:58;4.20;99.90
55721;DHT22;41626;53.098;6.168;2023-02-25T04:46:24;4.10;99.90
55721;DHT22;41626;53.098;6.168;2023-02-25T04:48:50;4.20;99.90
55721;DHT22;41626;53.098;6.168;2023-02-25T04:51:16;4.20;99.90
55721;DHT22;41626;53.098;6.168;2023-02-25T04:53:42;4.30;99.90
55721;DHT22;41626;53.098;6.168;2023-02-25T04:56:09;4.30;99.90
55721;DHT22;41626;53.098;6.168;2023-02-25T04:58:36;4.20;99.90
55721;DHT22;41626;53.098;6.168;2023-02-25T05:01:04;4.40;99.90
55721;DHT22;41626;53.098;6.168;2023-02-25T05:03:31;4.30;99.90
55721;DHT22;41626;53.098;6.168;2023-02-25T05:05:57;4.20;99.90
55721;DHT22;41626;53.098;6.168;2023-02-25T05:08:23;4.30;99.90
55721;DHT22;41626;53.098;6.168;2023-02-25T05:10:50;4.40;99.90
55721;DHT22;41626;53.098;6.168;2023-02-25T05:13:16;4.40;99.90
55721;DHT22;41626;53.098;6.168;2023-02-25T05:15:42;4.40;99.90
55721;DHT22;41626;53.098;6.168;2023-02-25T05:18:08;4.40;99.90
55721;DHT22;41626;53.098;6.168;2023-02-25T05:20:34;4.50;99.90
55721;DHT22;41626;53.098;6.168;2023-02-25T05:23:03;4.40;99.90
55721;DHT22;41626;53.098;6.168;2023-02-25T05:25:29;4.30;99.90
55721;DHT22;41626;53.098;6.168;2023-02-25T05:27:54;4.30;99.90
55721;DHT22;41626;53.098;6.168;2023-02-25T05:30:20;4.20;99.90
55721;DHT22;41626;53.098;6.168;2023-02-25T05:32:46;4.10;99.90
55721;DHT22;41626;53.098;6.168;2023-02-25T05:35:12;4.20;99.90
55721;DHT22;41626;53.098;6.168;2023-02-25T05:37:37;4.10;99.90
55721;DHT22;41626;53.098;6.168;2023-02-25T05:40:04;4.20;99.90
55721;DHT22;41626;53.098;6.168;2023-02-25T05:42:31;4.20;99.90
55721;DHT22;41626;53.098;6.168;2023-02-25T05:44:57;4.20;99.90
55721;DHT22;41626;53.098;6.168;2023-02-25T05:47:22;4.20;99.90
55721;DHT22;41626;53.098;6.168;2023-02-25T05:49:48;4.20;99.90
55721;DHT22;41626;53.098;6.168;2023-02-25T05:52:14;4.00;99.90
55721;DHT22;41626;53.098;6.168;2023-02-25T05:54:40;4.00;99.90
55721;DHT22;41626;53.098;6.168;2023-02-25T05:57:05;4.10;99.90
55721;DHT22;41626;53.098;6.168;2023-02-25T05:59:31;4.20;99.90
55721;DHT22;41626;53.098;6.168;2023-02-25T06:01:57;4.00;99.90
55721;DHT22;41626;53.098;6.168;2023-02-25T06:04:23;3.80;99.90
55721;DHT22;41626;53.098;6.168;2023-02-25T06:06:48;3.60;99.90
55721;DHT22;41626;53.098;6.168;2023-02-25T06:09:16;3.70;99.90
55721;DHT22;41626;53.098;6.168;2023-02-25T06:11:44;3.50;99.90
55721;DHT22;41626;53.098;6.168;2023-02-25T06:14:09;3.60;99.90
55721;DHT22;41626;53.098;6.168;2023-02-25T06:16:37;3.60;99.90
55721;DHT22;41626;53.098;6.168;2023-02-25T06:19:03;3.70;99.90
55721;DHT22;41626;53.098;6.168;2023-02-25T06:21:32;3.70;99.90
55721;DHT22;41626;53.098;6.168;2023-02-25T06:23:58;3.50;99.90
55721;DHT22;41626;53.098;6.168;2023-02-25T06:26:25;3.50;99.90
55721;DHT22;41626;53.098;6.168;2023-02-25T06:28:51;3.60;99.90
55721;DHT22;41626;53.098;6.168;2023-02-25T06:31:18;3.70;99.90
55721;DHT22;41626;53.098;6.168;2023-02-25T06:33:44;3.70;99.90
55721;DHT22;41626;53.098;6.168;2023-02-25T06:36:11;3.60;99.90
55721;DHT22;41626;53.098;6.168;2023-02-25T06:38:38;3.70;99.90
55721;DHT22;41626;53.098;6.168;2023-02-25T06:41:09;3.70;99.90
55721;DHT22;41626;53.098;6.168;2023-02-25T06:43:37;3.30;99.90
55721;DHT22;41626;53.098;6.168;2023-02-25T06:46:04;3.30;99.90
55721;DHT22;41626;53.098;6.168;2023-02-25T06:48:30;3.30;99.90
55721;DHT22;41626;53.098;6.168;2023-02-25T06:50:56;3.30;99.90
55721;DHT22;41626;53.098;6.168;2023-02-25T06:53:21;3.20;99.90
55721;DHT22;41626;53.098;6.168;2023-02-25T06:55:48;3.40;99.90
55721;DHT22;41626;53.098;6.168;2023-02-25T06:58:14;3.50;99.90
55721;DHT22;41626;53.098;6.168;2023-02-25T07:00:41;3.20;99.90
55721;DHT22;41626;53.098;6.168;2023-02-25T07:03:13;3.40;99.90
55721;DHT22;41626;53.098;6.168;2023-02-25T07:05:38;3.30;99.90
55721;DHT22;41626;53.098;6.168;2023-02-25T07:08:04;3.20;99.90
55721;DHT22;41626;53.098;6.168;2023-02-25T07:10:30;3.30;99.90
55721;DHT22;41626;53.098;6.168;2023-02-25T07:12:56;3.40;99.90
55721;DHT22;41626;53.098;6.168;2023-02-25T07:15:22;3.20;99.90
55721;DHT22;41626;53.098;6.168;2023-02-25T07:17:47;3.30;99.90
55721;DHT22;41626;53.098;6.168;2023-02-25T07:20:14;3.40;99.90
55721;DHT22;41626;53.098;6.168;2023-02-25T07:22:39;3.40;99.90
55721;DHT22;41626;53.098;6.168;2023-02-25T07:25:08;3.30;99.90
55721;DHT22;41626;53.098;6.168;2023-02-25T07:27:38;3.30;99.90
55721;DHT22;41626;53.098;6.168;2023-02-25T07:30:04;3.20;99.90
55721;DHT22;41626;53.098;6.168;2023-02-25T07:32:30;3.20;99.90
55721;DHT22;41626;53.098;6.168;2023-02-25T07:34:56;3.50;99.90
55721;DHT22;41626;53.098;6.168;2023-02-25T07:37:21;3.50;99.90
55721;DHT22;41626;53.098;6.168;2023-02-25T07:39:47;3.50;99.90
55721;DHT22;41626;53.098;6.168;2023-02-25T07:42:12;3.60;99.90
55721;DHT22;41626;53.098;6.168;2023-02-25T07:44:38;3.60;99.90
55721;DHT22;41626;53.098;6.168;2023-02-25T07:47:04;3.60;99.90
55721;DHT22;41626;53.098;6.168;2023-02-25T07:49:29;3.70;99.90
55721;DHT22;41626;53.098;6.168;2023-02-25T07:51:55;3.70;99.90
55721;DHT22;41626;53.098;6.168;2023-02-25T07:54:21;3.60;99.90
55721;DHT22;41626;53.098;6.168;2023-02-25T07:56:47;3.60;99.90
55721;DHT22;41626;53.098;6.168;2023-02-25T07:59:16;3.40;99.90
55721;DHT22;41626;53.098;6.168;2023-02-25T08:01:42;3.60;99.90
55721;DHT22;41626;53.098;6.168;2023-02-25T08:04:09;3.60;99.90
55721;DHT22;41626;53.098;6.168;2023-02-25T08:06:36;3.60;99.90
55721;DHT22;41626;53.098;6.168;2023-02-25T08:09:06;3.80;99.90
55721;DHT22;41626;53.098;6.168;2023-02-25T08:11:32;3.80;99.90
55721;DHT22;41626;53.098;6.168;2023-02-25T08:14:01;3.80;99.90
55721;DHT22;41626;53.098;6.168;2023-02-25T08:16:27;3.90;99.90
55721;DHT22;41626;53.098;6.168;2023-02-25T08:18:53;4.00;99.90
55721;DHT22;41626;53.098;6.168;2023-02-25T08:21:20;4.10;99.90
55721;DHT22;41626;53.098;6.168;2023-02-25T08:23:46;4.30;99.90
55721;DHT22;41626;53.098;6.168;2023-02-25T08:26:13;4.40;99.90
55721;DHT22;41626;53.098;6.168;2023-02-25T08:28:42;4.50;99.90
55721;DHT22;41626;53.098;6.168;2023-02-25T08:31:08;4.60;99.90
55721;DHT22;41626;53.098;6.168;2023-02-25T08:33:37;4.60;99.90
55721;DHT22;41626;53.098;6.168;2023-02-25T08:36:11;4.70;99.90
55721;DHT22;41626;53.098;6.168;2023-02-25T08:38:38;4.60;99.90
55721;DHT22;41626;53.098;6.168;2023-02-25T08:41:05;3.80;99.90
55721;DHT22;41626;53.098;6.168;2023-02-25T08:43:31;3.30;99.90
55721;DHT22;41626;53.098;6.168;2023-02-25T08:45:57;3.30;99.90
55721;DHT22;41626;53.098;6.168;2023-02-25T08:48:23;3.50;99.90
55721;DHT22;41626;53.098;6.168;2023-02-25T08:50:49;3.40;99.90
55721;DHT22;41626;53.098;6.168;2023-02-25T08:53:15;3.40;99.90
55721;DHT22;41626;53.098;6.168;2023-02-25T08:55:40;3.40;99.90
55721;DHT22;41626;53.098;6.168;2023-02-25T08:58:06;3.50;99.90
55721;DHT22;41626;53.098;6.168;2023-02-25T09:00:32;3.60;99.90
55721;DHT22;41626;53.098;6.168;2023-02-25T09:02:58;3.70;99.90
55721;DHT22;41626;53.098;6.168;2023-02-25T09:05:24;4.00;99.90
55721;DHT22;41626;53.098;6.168;2023-02-25T09:07:51;4.20;99.90
55721;DHT22;41626;53.098;6.168;2023-02-25T09:10:17;4.30;99.90
55721;DHT22;41626;53.098;6.168;2023-02-25T09:12:44;4.40;99.90
55721;DHT22;41626;53.098;6.168;2023-02-25T09:15:10;4.70;99.90
55721;DHT22;41626;53.098;6.168;2023-02-25T09:17:37;4.80;99.90
55721;DHT22;41626;53.098;6.168;2023-02-25T09:20:03;5.00;99.90
55721;DHT22;41626;53.098;6.168;2023-02-25T09:22:35;4.90;99.90
55721;DHT22;41626;53.098;6.168;2023-02-25T09:25:03;4.70;99.90
55721;DHT22;41626;53.098;6.168;2023-02-25T09:27:29;4.80;99.90
55721;DHT22;41626;53.098;6.168;2023-02-25T09:29:55;4.60;99.90
55721;DHT22;41626;53.098;6.168;2023-02-25T09:32:21;4.50;99.90
55721;DHT22;41626;53.098;6.168;2023-02-25T09:34:47;4.50;99.90
55721;DHT22;41626;53.098;6.168;2023-02-25T09:37:14;4.50;99.90
55721;DHT22;41626;53.098;6.168;2023-02-25T09:39:40;4.70;99.90
55721;DHT22;41626;53.098;6.168;2023-02-25T09:42:17;4.90;99.90
55721;DHT22;41626;53.098;6.168;2023-02-25T09:44:49;5.00;99.90
55721;DHT22;41626;53.098;6.168;2023-02-25T09:47:30;5.10;99.90
55721;DHT22;41626;53.098;6.168;2023-02-25T09:50:01;5.10;99.90
55721;DHT22;41626;53.098;6.168;2023-02-25T09:52:44;5.30;99.90
55721;DHT22;41626;53.098;6.168;2023-02-25T09:55:31;5.20;99.90
55721;DHT22;41626;53.098;6.168;2023-02-25T10:03:33;5.20;99.90
55721;DHT22;41626;53.098;6.168;2023-02-25T10:12:12;5.20;99.90
55721;DHT22;41626;53.098;6.168;2023-02-25T10:17:59;5.30;99.90
55721;DHT22;41626;53.098;6.168;2023-02-25T10:23:26;5.20;99.90
55721;DHT22;41626;53.098;6.168;2023-02-25T10:26:23;5.20;99.90
55721;DHT22;41626;53.098;6.168;2023-02-25T10:28:53;5.10;99.90
55721;DHT22;41626;53.098;6.168;2023-02-25T10:31:21;5.00;99.90
55721;DHT22;41626;53.098;6.168;2023-02-25T10:33:49;4.90;99.90
55721;DHT22;41626;53.098;6.168;2023-02-25T10:36:30;4.80;99.90
55721;DHT22;41626;53.098;6.168;2023-02-25T10:38:56;4.90;99.90
55721;DHT22;41626;53.098;6.168;2023-02-25T10:41:23;4.90;99.90
55721;DHT22;41626;53.098;6.168;2023-02-25T10:43:51;5.10;99.90
55721;DHT22;41626;53.098;6.168;2023-02-25T10:49:18;5.30;99.90
55721;DHT22;41626;53.098;6.168;2023-02-25T10:52:02;5.60;99.90
55721;DHT22;41626;53.098;6.168;2023-02-25T10:54:33;5.80;99.90
55721;DHT22;41626;53.098;6.168;2023-02-25T10:57:07;5.60;99.90
55721;DHT22;41626;53.098;6.168;2023-02-25T10:59:39;5.50;99.90
55721;DHT22;41626;53.098;6.168;2023-02-25T11:02:21;5.50;99.90
55721;DHT22;41626;53.098;6.168;2023-02-25T11:04:48;5.70;99.90
55721;DHT22;41626;53.098;6.168;2023-02-25T11:07:40;5.60;99.90
55721;DHT22;41626;53.098;6.168;2023-02-25T11:12:45;5.50;99.90
55721;DHT22;41626;53.098;6.168;2023-02-25T11:20:29;5.50;99.90
55721;DHT22;41626;53.098;6.168;2023-02-25T11:22:57;5.80;99.90
55721;DHT22;41626;53.098;6.168;2023-02-25T11:25:36;6.00;99.90
55721;DHT22;41626;53.098;6.168;2023-02-25T11:28:04;5.90;99.90
55721;DHT22;41626;53.098;6.168;2023-02-25T11:30:39;5.70;99.90
55721;DHT22;41626;53.098;6.168;2023-02-25T11:33:13;5.70;99.90
55721;DHT22;41626;53.098;6.168;2023-02-25T11:35:43;5.60;99.90
55721;DHT22;41626;53.098;6.168;2023-02-25T11:40:53;5.60;99.90
55721;DHT22;41626;53.098;6.168;2023-02-25T11:43:24;5.40;99.90
55721;DHT22;41626;53.098;6.168;2023-02-25T11:46:01;5.20;99.90
55721;DHT22;41626;53.098;6.168;2023-02-25T11:48:49;5.20;99.90
55721;DHT22;41626;53.098;6.168;2023-02-25T11:51:29;5.40;99.90
55721;DHT22;41626;53.098;6.168;2023-02-25T11:54:23;5.50;99.90
55721;DHT22;41626;53.098;6.168;2023-02-25T11:56:54;5.40;99.90
55721;DHT22;41626;53.098;6.168;2023-02-25T11:59:25;5.60;99.90
55721;DHT22;41626;53.098;6.168;2023-02-25T12:07:53;5.30;99.90
55721;DHT22;41626;53.098;6.168;2023-02-25T12:13:23;5.60;99.90
55721;DHT22;41626;53.098;6.168;2023-02-25T12:29:16;5.70;99.90
55721;DHT22;41626;53.098;6.168;2023-02-25T12:46:10;5.60;99.90
55721;DHT22;41626;53.098;6.168;2023-02-25T12:48:53;5.70;99.90
55721;DHT22;41626;53.098;6.168;2023-02-25T12:54:25;5.70;99.90
55721;DHT22;41626;53.098;6.168;2023-02-25T13:05:54;5.40;99.90
55721;DHT22;41626;53.098;6.168;2023-02-25T13:16:38;6.10;99.90
55721;DHT22;41626;53.098;6.168;2023-02-25T13:19:35;6.00;99.90
55721;DHT22;41626;53.098;6.168;2023-02-25T13:25:12;5.50;99.90
55721;DHT22;41626;53.098;6.168;2023-02-25T13:31:04;5.40;99.90
55721;DHT22;41626;53.098;6.168;2023-02-25T13:59:14;6.00;99.90
55721;DHT22;41626;53.098;6.168;2023-02-25T14:04:11;6.00;99.90
55721;DHT22;41626;53.098;6.168;2023-02-25T14:09:44;5.80;99.90
55721;DHT22;41626;53.098;6.168;2023-02-25T14:18:22;5.80;99.90
55721;DHT22;41626;53.098;6.168;2023-02-25T14:20:56;5.90;99.90
55721;DHT22;41626;53.098;6.168;2023-02-25T14:29:11;5.80;99.90
55721;DHT22;41626;53.098;6.168;2023-02-25T14:45:01;5.20;99.90
55721;DHT22;41626;53.098;6.168;2023-02-25T14:48:04;5.10;99.90
55721;DHT22;41626;53.098;6.168;2023-02-25T14:50:45;5.20;99.90
55721;DHT22;41626;53.098;6.168;2023-02-25T15:13:41;5.20;99.90
55721;DHT22;41626;53.098;6.168;2023-02-25T15:22:27;5.40;99.90
55721;DHT22;41626;53.098;6.168;2023-02-25T15:27:52;5.70;99.90
55721;DHT22;41626;53.098;6.168;2023-02-25T15:30:25;5.50;99.90
55721;DHT22;41626;53.098;6.168;2023-02-25T15:33:20;5.40;99.90
55721;DHT22;41626;53.098;6.168;2023-02-25T15:40:50;5.30;99.90
55721;DHT22;41626;53.098;6.168;2023-02-25T15:45:48;5.20;99.90
55721;DHT22;41626;53.098;6.168;2023-02-25T16:08:46;4.90;99.90
55721;DHT22;41626;53.098;6.168;2023-02-25T16:11:41;4.90;99.90
55721;DHT22;41626;53.098;6.168;2023-02-25T16:14:27;4.90;99.90
55721;DHT22;41626;53.098;6.168;2023-02-25T16:16:59;4.90;99.90
55721;DHT22;41626;53.098;6.168;2023-02-25T16:19:30;4.90;99.90
55721;DHT22;41626;53.098;6.168;2023-02-25T16:22:02;4.90;99.90
55721;DHT22;41626;53.098;6.168;2023-02-25T16:24:29;4.80;99.90
55721;DHT22;41626;53.098;6.168;2023-02-25T16:27:04;4.80;99.90
55721;DHT22;41626;53.098;6.168;2023-02-25T16:39:57;4.70;99.90
55721;DHT22;41626;53.098;6.168;2023-02-25T16:42:23;4.60;99.90
55721;DHT22;41626;53.098;6.168;2023-02-25T16:44:57;4.70;99.90
55721;DHT22;41626;53.098;6.168;2023-02-25T16:47:29;4.60;99.90
55721;DHT22;41626;53.098;6.168;2023-02-25T16:49:57;4.50;99.90
55721;DHT22;41626;53.098;6.168;2023-02-25T16:52:32;4.40;99.90
55721;DHT22;41626;53.098;6.168;2023-02-25T16:55:03;4.40;99.90
55721;DHT22;41626;53.098;6.168;2023-02-25T16:57:34;4.30;99.90
55721;DHT22;41626;53.098;6.168;2023-02-25T17:02:43;4.30;99.90
55721;DHT22;41626;53.098;6.168;2023-02-25T17:05:22;4.30;99.90
55721;DHT22;41626;53.098;6.168;2023-02-25T17:07:53;4.20;99.90
55721;DHT22;41626;53.098;6.168;2023-02-25T17:10:42;4.20;99.90
55721;DHT22;41626;53.098;6.168;2023-02-25T17:13:20;4.20;99.90
55721;DHT22;41626;53.098;6.168;2023-02-25T17:15:48;4.10;99.90
55721;DHT22;41626;53.098;6.168;2023-02-25T17:18:27;4.00;99.90
55721;DHT22;41626;53.098;6.168;2023-02-25T17:21:08;4.00;99.90
55721;DHT22;41626;53.098;6.168;2023-02-25T17:23:41;4.00;99.90
55721;DHT22;41626;53.098;6.168;2023-02-25T17:26:11;3.90;99.90
55721;DHT22;41626;53.098;6.168;2023-02-25T17:28:38;3.90;99.90
55721;DHT22;41626;53.098;6.168;2023-02-25T17:31:11;3.80;99.90
55721;DHT22;41626;53.098;6.168;2023-02-25T17:33:54;3.80;99.90
55721;DHT22;41626;53.098;6.168;2023-02-25T17:36:24;3.80;99.90
55721;DHT22;41626;53.098;6.168;2023-02-25T17:39:03;3.80;99.90
55721;DHT22;41626;53.098;6.168;2023-02-25T17:41:30;3.70;99.90
55721;DHT22;41626;53.098;6.168;2023-02-25T17:43:56;3.60;99.90
55721;DHT22;41626;53.098;6.168;2023-02-25T17:46:33;3.70;99.90
55721;DHT22;41626;53.098;6.168;2023-02-25T17:49:05;3.70;99.90
55721;DHT22;41626;53.098;6.168;2023-02-25T17:51:42;3.60;99.90
55721;DHT22;41626;53.098;6.168;2023-02-25T17:54:14;3.60;99.90
55721;DHT22;41626;53.098;6.168;2023-02-25T17:56:41;3.60;99.90
55721;DHT22;41626;53.098;6.168;2023-02-25T18:01:55;3.50;99.90
55721;DHT22;41626;53.098;6.168;2023-02-25T18:04:22;3.40;99.90
55721;DHT22;41626;53.098;6.168;2023-02-25T18:06:50;3.40;99.90
55721;DHT22;41626;53.098;6.168;2023-02-25T18:11:59;3.30;99.90
55721;DHT22;41626;53.098;6.168;2023-02-25T18:14:36;3.30;99.90
55721;DHT22;41626;53.098;6.168;2023-02-25T18:17:15;3.30;99.90
55721;DHT22;41626;53.098;6.168;2023-02-25T18:19:43;3.30;99.90
55721;DHT22;41626;53.098;6.168;2023-02-25T18:22:25;3.20;99.90
55721;DHT22;41626;53.098;6.168;2023-02-25T18:24:54;3.20;99.90
55721;DHT22;41626;53.098;6.168;2023-02-25T18:27:23;3.20;99.90
55721;DHT22;41626;53.098;6.168;2023-02-25T18:29:52;3.10;99.90
55721;DHT22;41626;53.098;6.168;2023-02-25T18:32:18;3.10;99.90
55721;DHT22;41626;53.098;6.168;2023-02-25T18:34:44;3.10;99.90
55721;DHT22;41626;53.098;6.168;2023-02-25T18:37:15;3.00;99.90
55721;DHT22;41626;53.098;6.168;2023-02-25T18:39:42;3.00;99.90
55721;DHT22;41626;53.098;6.168;2023-02-25T18:42:15;3.00;99.90
55721;DHT22;41626;53.098;6.168;2023-02-25T18:44:42;3.00;99.90
55721;DHT22;41626;53.098;6.168;2023-02-25T18:47:07;3.00;99.90
55721;DHT22;41626;53.098;6.168;2023-02-25T18:49:33;3.00;99.90
55721;DHT22;41626;53.098;6.168;2023-02-25T18:51:59;3.00;99.90
55721;DHT22;41626;53.098;6.168;2023-02-25T18:54:24;3.00;99.90
55721;DHT22;41626;53.098;6.168;2023-02-25T18:56:52;2.90;99.90
55721;DHT22;41626;53.098;6.168;2023-02-25T18:59:18;2.90;99.90
55721;DHT22;41626;53.098;6.168;2023-02-25T19:01:43;2.90;99.90
55721;DHT22;41626;53.098;6.168;2023-02-25T19:04:15;2.90;99.90
55721;DHT22;41626;53.098;6.168;2023-02-25T19:06:41;2.90;99.90
55721;DHT22;41626;53.098;6.168;2023-02-25T19:09:07;2.90;99.90
55721;DHT22;41626;53.098;6.168;2023-02-25T19:11:34;2.80;99.90
55721;DHT22;41626;53.098;6.168;2023-02-25T19:14:02;2.90;99.90
55721;DHT22;41626;53.098;6.168;2023-02-25T19:16:27;2.80;99.90
55721;DHT22;41626;53.098;6.168;2023-02-25T19:18:53;2.80;99.90
55721;DHT22;41626;53.098;6.168;2023-02-25T19:21:20;2.70;99.90
55721;DHT22;41626;53.098;6.168;2023-02-25T19:23:47;2.70;99.90
55721;DHT22;41626;53.098;6.168;2023-02-25T19:26:15;2.70;99.90
55721;DHT22;41626;53.098;6.168;2023-02-25T19:28:41;2.70;99.90
55721;DHT22;41626;53.098;6.168;2023-02-25T19:31:07;2.60;99.90
55721;DHT22;41626;53.098;6.168;2023-02-25T19:33:34;2.60;99.90
55721;DHT22;41626;53.098;6.168;2023-02-25T19:36:02;2.60;99.90
55721;DHT22;41626;53.098;6.168;2023-02-25T19:38:28;2.60;99.90
55721;DHT22;41626;53.098;6.168;2023-02-25T19:41:00;2.50;99.90
55721;DHT22;41626;53.098;6.168;2023-02-25T19:43:26;2.50;99.90
55721;DHT22;41626;53.098;6.168;2023-02-25T19:45:51;2.50;99.90
55721;DHT22;41626;53.098;6.168;2023-02-25T19:48:18;2.50;99.90
55721;DHT22;41626;53.098;6.168;2023-02-25T19:50:44;2.50;99.90
55721;DHT22;41626;53.098;6.168;2023-02-25T19:53:10;2.40;99.90
55721;DHT22;41626;53.098;6.168;2023-02-25T19:55:36;2.50;99.90
55721;DHT22;41626;53.098;6.168;2023-02-25T19:58:04;2.50;99.90
55721;DHT22;41626;53.098;6.168;2023-02-25T20:00:30;2.50;99.90
55721;DHT22;41626;53.098;6.168;2023-02-25T20:02:56;2.50;99.90
55721;DHT22;41626;53.098;6.168;2023-02-25T20:05:22;2.50;99.90